sensor_id;sensor_type;location;lat;lon;timestamp;temperature;humidity
71647;SHT31;59706;45.634;11.704;2024-03-07T20:39:28;21.97;60.03
71647;SHT31;59706;45.634;11.704;2024-03-07T20:41:54;21.82;60.31
71647;SHT31;59706;45.634;11.704;2024-03-07T20:44:20;21.68;60.60
71647;SHT31;59706;45.634;11.704;2024-03-07T20:46:46;21.55;60.80
71647;SHT31;59706;45.634;11.704;2024-03-07T20:49:13;21.35;61.01
71647;SHT31;59706;45.634;11.704;2024-03-07T20:51:43;21.09;61.40
71647;SHT31;59706;45.634;11.704;2024-03-07T20:54:10;20.85;61.86
71647;SHT31;59706;45.634;11.704;2024-03-07T20:56:45;20.67;62.28
71647;SHT31;59706;45.634;11.704;2024-03-07T20:59:16;20.53;62.66
71647;SHT31;59706;45.634;11.704;2024-03-07T21:01:49;20.44;62.96
71647;SHT31;59706;45.634;11.704;2024-03-07T21:04:18;20.37;63.23
71647;SHT31;59706;45.634;11.704;2024-03-07T21:06:46;20.33;63.40
71647;SHT31;59706;45.634;11.704;2024-03-07T21:09:13;20.30;63.57
71647;SHT31;59706;45.634;11.704;2024-03-07T21:11:39;20.28;63.70
71647;SHT31;59706;45.634;11.704;2024-03-07T21:14:05;20.25;63.82
71647;SHT31;59706;45.634;11.704;2024-03-07T21:16:33;20.21;63.94
71647;SHT31;59706;45.634;11.704;2024-03-07T21:19:04;20.19;64.07
71647;SHT31;59706;45.634;11.704;2024-03-07T21:21:33;20.16;64.20
71647;SHT31;59706;45.634;11.704;2024-03-07T21:24:02;20.14;64.32
71647;SHT31;59706;45.634;11.704;2024-03-07T21:26:30;20.12;64.43
71647;SHT31;59706;45.634;11.704;2024-03-07T21:28:56;20.09;64.53
71647;SHT31;59706;45.634;11.704;2024-03-07T21:31:22;20.07;64.66
71647;SHT31;59706;45.634;11.704;2024-03-07T21:33:50;20.03;64.72
71647;SHT31;59706;45.634;11.704;2024-03-07T21:36:16;20.03;64.82
71647;SHT31;59706;45.634;11.704;2024-03-07T21:38:43;20.01;64.92
71647;SHT31;59706;45.634;11.704;2024-03-07T21:41:11;20.02;65.01
71647;SHT31;59706;45.634;11.704;2024-03-07T21:43:39;20.04;65.03
71647;SHT31;59706;45.634;11.704;2024-03-07T21:46:05;20.05;65.04
71647;SHT31;59706;45.634;11.704;2024-03-07T21:48:31;20.09;65.08
71647;SHT31;59706;45.634;11.704;2024-03-07T21:50:58;20.11;65.10
71647;SHT31;59706;45.634;11.704;2024-03-07T21:53:29;20.12;65.11
71647;SHT31;59706;45.634;11.704;2024-03-07T21:55:56;20.12;65.09
71647;SHT31;59706;45.634;11.704;2024-03-07T21:58:27;20.13;65.13
71647;SHT31;59706;45.634;11.704;2024-03-07T22:00:53;20.13;65.23
71647;SHT31;59706;45.634;11.704;2024-03-07T22:03:20;20.13;65.21
71647;SHT31;59706;45.634;11.704;2024-03-07T22:05:47;20.14;65.20
71647;SHT31;59706;45.634;11.704;2024-03-07T22:08:13;20.13;65.28
71647;SHT31;59706;45.634;11.704;2024-03-07T22:10:41;20.13;65.31
71647;SHT31;59706;45.634;11.704;2024-03-07T22:13:11;20.11;65.34
71647;SHT31;59706;45.634;11.704;2024-03-07T22:15:42;20.11;65.42
71647;SHT31;59706;45.634;11.704;2024-03-07T22:18:12;20.12;65.40
71647;SHT31;59706;45.634;11.704;2024-03-07T22:20:38;20.14;65.40
71647;SHT31;59706;45.634;11.704;2024-03-07T22:23:03;20.17;65.40
71647;SHT31;59706;45.634;11.704;2024-03-07T22:25:30;20.20;65.37
71647;SHT31;59706;45.634;11.704;2024-03-07T22:27:57;20.23;65.32
71647;SHT31;59706;45.634;11.704;2024-03-07T22:30:24;20.24;65.31
71647;SHT31;59706;45.634;11.704;2024-03-07T22:32:50;20.25;65.26
71647;SHT31;59706;45.634;11.704;2024-03-07T22:35:16;20.24;65.27
71647;SHT31;59706;45.634;11.704;2024-03-07T22:37:42;20.25;65.26
71647;SHT31;59706;45.634;11.704;2024-03-07T22:40:09;20.25;65.26
71647;SHT31;59706;45.634;11.704;2024-03-07T22:42:42;20.24;65.27
71647;SHT31;59706;45.634;11.704;2024-03-07T22:45:09;20.24;65.26
71647;SHT31;59706;45.634;11.704;2024-03-07T22:47:37;20.22;65.29
71647;SHT31;59706;45.634;11.704;2024-03-07T22:50:03;20.21;65.30
71647;SHT31;59706;45.634;11.704;2024-03-07T22:52:34;20.20;65.33
71647;SHT31;59706;45.634;11.704;2024-03-07T22:55:01;20.20;65.35
